Terminal Aerodrome Forecast
Issued by NWS Sterling, VA

Current Version | Previous Version | Text Only | Print | Product List | Glossary Off
Versions: 1 2 3 4 5 6 7 8 9 10 11 12 13 14 15 16 17 18 19 20 21 22 23 24

000
FTUS41 KLWX 170400 AAA
TAFDCA
TAF AMD
KDCA 170444Z 1705/1724 27007KT 4SM BR OVC008
     FM170700 27006KT P6SM BKN025
     FM171000 28007KT P6SM SCT045
     FM171500 28012G22KT P6SM SCT045=

USA.gov is the U.S. government's official web portal to all federal, state and local government web resources and services.